Time;durP1;ratioP1;P1;durP2;ratioP2;P2;SDS_P1;SDS_P2;PMS_P1;PMS_P2;Temp;Humidity;BMP_temperature;BMP_pressure;BME280_temperature;BME280_humidity;BME280_pressure;Samples;Min_cycle;Max_cycle;Signal;HPM_P1;HPM_P2
2023/04/22 00:02:07;;;;;;;1999.90;999.90;;;9.90;99.90;;;;;;6715476;88;20174;-79
2023/04/22 00:12:10;;;;;;;1999.90;999.90;;;9.90;99.90;;;;;;6708234;88;20506;-76
2023/04/22 00:22:11;;;;;;;1999.90;999.90;;;9.80;99.90;;;;;;6703183;88;21481;-77
2023/04/22 00:32:11;;;;;;;1999.90;999.90;;;9.80;99.90;;;;;;6710430;88;20194;-77
2023/04/22 00:42:13;;;;;;;1999.90;999.90;;;9.80;99.90;;;;;;6712944;88;20409;-78
2023/04/22 00:52:17;;;;;;;1999.90;999.90;;;9.70;99.90;;;;;;6714287;88;20647;-78
2023/04/22 01:02:21;;;;;;;1999.90;999.90;;;9.70;99.90;;;;;;6714667;88;20189;-78
2023/04/22 01:12:22;;;;;;;1999.90;999.90;;;9.80;99.90;;;;;;6713288;88;22295;-77
2023/04/22 01:22:25;;;;;;;1999.90;999.90;;;10.10;99.90;;;;;;6716592;88;20178;-77
2023/04/22 01:32:25;;;;;;;1999.90;999.90;;;10.40;99.90;;;;;;6709362;88;20299;-77
2023/04/22 01:42:26;;;;;;;1999.90;999.90;;;10.60;99.90;;;;;;6714366;88;20253;-79
2023/04/22 01:52:27;;;;;;;1999.90;999.90;;;10.90;99.90;;;;;;6711338;88;20655;-79
2023/04/22 02:02:27;;;;;;;1999.90;999.90;;;11.00;99.90;;;;;;6711285;88;20213;-78
2023/04/22 02:12:28;;;;;;;1999.90;999.90;;;11.30;99.90;;;;;;6711826;88;20255;-78
2023/04/22 02:22:29;;;;;;;1999.90;999.90;;;11.40;99.90;;;;;;6710825;88;20309;-79
2023/04/22 02:32:30;;;;;;;1999.90;999.90;;;11.50;99.90;;;;;;6707424;88;20914;-76
2023/04/22 02:52:34;;;;;;;1999.90;999.90;;;11.50;99.90;;;;;;6747311;88;20280;-80
2023/04/22 03:02:35;;;;;;;1999.90;999.90;;;11.60;99.90;;;;;;6743083;88;20836;-80
2023/04/22 03:12:36;;;;;;;1999.90;999.90;;;11.60;99.90;;;;;;6743631;88;20317;-81
2023/04/22 03:22:36;;;;;;;1999.90;999.90;;;11.50;99.90;;;;;;6743262;88;20661;-80
2023/04/22 03:32:37;;;;;;;1999.90;999.90;;;11.20;99.90;;;;;;6748213;88;20271;-80
2023/04/22 03:42:37;;;;;;;1999.90;999.90;;;11.10;99.90;;;;;;6746519;88;20285;-80
2023/04/22 03:52:38;;;;;;;1999.90;999.90;;;11.40;99.90;;;;;;6739601;88;20263;-80
2023/04/22 04:02:38;;;;;;;1999.90;999.90;;;11.60;99.90;;;;;;6740062;88;20197;-80
2023/04/22 04:12:39;;;;;;;1999.90;999.90;;;11.60;99.90;;;;;;6743769;88;20204;-80
2023/04/22 04:22:39;;;;;;;1999.90;999.90;;;11.60;99.90;;;;;;6743717;88;20196;-80
2023/04/22 04:32:41;;;;;;;1999.90;999.90;;;11.60;99.90;;;;;;6743830;88;20214;-80
2023/04/22 04:42:42;;;;;;;1999.90;999.90;;;11.60;99.90;;;;;;6733526;88;20206;-81
2023/04/22 04:52:42;;;;;;;1999.90;999.90;;;11.70;99.90;;;;;;6745112;88;20728;-81
2023/04/22 05:02:43;;;;;;;1999.90;999.90;;;11.70;99.90;;;;;;6743554;88;20779;-79
2023/04/22 05:12:46;;;;;;;1999.90;999.90;;;11.80;99.90;;;;;;6743014;88;20277;-79
2023/04/22 05:22:47;;;;;;;1999.90;999.90;;;12.00;99.90;;;;;;6746541;88;20202;-80
2023/04/22 05:32:47;;;;;;;1999.90;999.90;;;12.10;99.90;;;;;;6746226;88;20177;-80
2023/04/22 05:42:48;;;;;;;1999.90;999.90;;;12.30;99.90;;;;;;6728190;88;20180;-79
2023/04/22 05:52:48;;;;;;;1999.90;999.90;;;12.50;99.90;;;;;;6730163;88;20256;-80
2023/04/22 06:02:49;;;;;;;1999.90;999.90;;;12.80;99.90;;;;;;6745373;88;20208;-80
2023/04/22 06:12:49;;;;;;;1999.90;999.90;;;12.90;99.90;;;;;;6745118;88;20286;-81
2023/04/22 06:22:50;;;;;;;1999.90;999.90;;;12.90;99.90;;;;;;6744715;88;20208;-81
2023/04/22 06:32:51;;;;;;;1999.90;999.90;;;13.00;99.90;;;;;;6742098;88;21085;-80
2023/04/22 06:42:51;;;;;;;1999.90;999.90;;;13.30;99.90;;;;;;6748490;88;20197;-79
2023/04/22 06:52:53;;;;;;;1999.90;999.90;;;13.70;99.90;;;;;;6742221;88;20197;-80
2023/04/22 07:02:53;;;;;;;1999.90;999.90;;;14.30;99.90;;;;;;6739123;88;20210;-81
2023/04/22 07:12:54;;;;;;;1999.90;999.90;;;14.80;99.90;;;;;;6744775;88;20860;-81
2023/04/22 07:22:55;;;;;;;1999.90;999.90;;;15.20;99.90;;;;;;6741089;88;20559;-81
2023/04/22 07:32:55;;;;;;;1999.90;999.90;;;15.80;99.90;;;;;;6741095;88;20211;-81
2023/04/22 07:42:56;;;;;;;1999.90;999.90;;;16.10;99.90;;;;;;6742052;88;20186;-79
2023/04/22 07:52:57;;;;;;;1999.90;999.90;;;16.40;99.90;;;;;;6737111;88;20228;-84
2023/04/22 08:02:57;;;;;;;1999.90;999.90;;;17.00;99.90;;;;;;6737971;88;20197;-81
2023/04/22 08:12:58;;;;;;;1999.90;999.90;;;17.50;99.90;;;;;;6732668;88;20214;-79
2023/04/22 08:22:59;;;;;;;1999.90;999.90;;;18.00;99.90;;;;;;6731142;88;20200;-79
2023/04/22 08:32:59;;;;;;;1999.90;999.90;;;18.60;99.90;;;;;;6731603;88;20208;-80
2023/04/22 08:43:00;;;;;;;1999.90;999.90;;;18.70;99.90;;;;;;6731905;88;20665;-80
2023/04/22 08:53:01;;;;;;;1999.90;999.90;;;19.20;99.90;;;;;;6733233;88;20260;-80
2023/04/22 09:03:04;;;;;;;1999.90;999.90;;;19.20;99.90;;;;;;6729631;88;20272;-81
2023/04/22 09:13:05;;;;;;;1999.90;999.90;;;19.10;99.90;;;;;;6724387;88;20205;-81
2023/04/22 09:23:06;;;;;;;1999.90;999.90;;;19.40;99.90;;;;;;6733173;88;20197;-80
2023/04/22 09:33:07;;;;;;;1999.90;999.90;;;20.50;99.90;;;;;;6732106;88;20194;-78
2023/04/22 09:43:08;;;;;;;1999.90;999.90;;;20.30;99.90;;;;;;6744593;88;20163;-81
2023/04/22 09:53:11;;;;;;;1999.90;999.90;;;20.10;99.90;;;;;;6743045;88;20180;-81
2023/04/22 10:03:11;;;;;;;1999.90;999.90;;;19.60;99.90;;;;;;6741379;88;20203;-81
2023/04/22 10:13:12;;;;;;;1999.90;999.90;;;20.60;99.50;;;;;;6743258;88;20198;-80
2023/04/22 10:23:17;;;;;;;1999.90;999.90;;;21.30;98.90;;;;;;6741149;88;20201;-81
2023/04/22 10:33:26;;;;;;;1999.90;999.90;;;20.60;98.90;;;;;;6742086;88;20752;-81
2023/04/22 10:43:47;;;;;;;1999.90;999.90;;;21.30;99.00;;;;;;6741037;88;20221;-80
2023/04/22 10:53:48;;;;;;;1999.90;999.90;;;21.40;98.70;;;;;;6730345;88;20207;-80
2023/04/22 11:03:50;;;;;;;1999.90;999.90;;;21.30;97.80;;;;;;6742739;88;20348;-79
2023/04/22 11:13:51;;;;;;;1999.90;999.90;;;22.00;97.10;;;;;;6744633;88;20207;-80
2023/04/22 11:23:52;;;;;;;1999.90;999.90;;;21.80;96.40;;;;;;6744905;88;21196;-79
2023/04/22 11:33:52;;;;;;;1999.90;999.90;;;21.40;96.80;;;;;;6727999;88;20211;-81
2023/04/22 11:43:53;;;;;;;1999.90;999.90;;;21.90;96.80;;;;;;6757553;88;20161;-79
2023/04/22 11:53:54;;;;;;;1999.90;999.90;;;21.60;97.20;;;;;;6745178;88;20645;-79
2023/04/22 12:03:59;;;;;;;1999.90;999.90;;;21.90;97.20;;;;;;6750259;87;20335;-80
2023/04/22 12:14:05;;;;;;;1999.90;999.90;;;22.20;97.30;;;;;;6748542;87;20146;-79
2023/04/22 12:24:11;;;;;;;1999.90;999.90;;;22.20;97.60;;;;;;6745911;88;20241;-78
2023/04/22 12:34:11;;;;;;;1999.90;999.90;;;22.10;97.90;;;;;;6736915;88;20176;-79
2023/04/22 12:44:12;;;;;;;1999.90;999.90;;;22.40;97.70;;;;;;6742800;88;20177;-80
2023/04/22 12:54:12;;;;;;;1999.90;999.90;;;22.30;98.30;;;;;;6735626;88;20200;-81
2023/04/22 13:04:13;;;;;;;1999.90;999.90;;;22.10;98.60;;;;;;6748344;88;20145;-80
2023/04/22 13:14:14;;;;;;;1999.90;999.90;;;21.40;98.50;;;;;;6741281;88;20174;-82
2023/04/22 13:24:14;;;;;;;1999.90;999.90;;;21.20;99.10;;;;;;6743218;88;20240;-79
2023/04/22 13:34:15;;;;;;;1999.90;999.90;;;21.10;99.20;;;;;;6738815;88;20690;-81
2023/04/22 13:44:16;;;;;;;1999.90;999.90;;;20.80;99.40;;;;;;6740524;88;20513;-80
2023/04/22 13:54:16;;;;;;;1999.90;999.90;;;20.50;99.40;;;;;;6742195;88;20218;-79
2023/04/22 14:04:17;;;;;;;1999.90;999.90;;;20.20;99.90;;;;;;6740046;88;20201;-81
2023/04/22 14:14:17;;;;;;;1999.90;999.90;;;20.10;99.90;;;;;;6757585;88;20619;-81
2023/04/22 14:24:18;;;;;;;1999.90;999.90;;;20.00;99.90;;;;;;6749329;88;20537;-80
2023/04/22 14:34:19;;;;;;;1999.90;999.90;;;19.90;99.90;;;;;;6743083;88;20165;-80
2023/04/22 14:54:23;;;;;;;1999.90;999.90;;;19.90;99.90;;;;;;6728091;88;20209;-81
2023/04/22 15:04:23;;;;;;;1999.90;999.90;;;19.90;99.90;;;;;;6724749;88;20222;-78
2023/04/22 15:14:24;;;;;;;1999.90;999.90;;;19.60;99.90;;;;;;6720209;88;20186;-78
2023/04/22 15:24:24;;;;;;;1999.90;999.90;;;19.40;99.90;;;;;;6728431;88;20194;-79
2023/04/22 15:34:25;;;;;;;1999.90;999.90;;;19.60;99.90;;;;;;6726985;88;20185;-80
2023/04/22 15:44:25;;;;;;;1999.90;999.90;;;19.60;99.90;;;;;;6720367;88;20924;-79
2023/04/22 15:54:26;;;;;;;1999.90;999.90;;;19.30;99.90;;;;;;6724363;88;20227;-78
2023/04/22 16:04:27;;;;;;;1999.90;999.90;;;19.10;99.90;;;;;;6721790;88;20205;-79
2023/04/22 16:14:27;;;;;;;1999.90;999.90;;;19.00;99.90;;;;;;6724899;88;20350;-79
2023/04/22 16:24:28;;;;;;;1999.90;999.90;;;18.70;99.90;;;;;;6720586;88;20698;-79
2023/04/22 16:34:29;;;;;;;1999.90;999.90;;;18.50;99.90;;;;;;6724063;88;20194;-79
2023/04/22 16:44:30;;;;;;;1999.90;999.90;;;18.00;99.90;;;;;;6724597;88;20198;-78
2023/04/22 16:54:30;;;;;;;1999.90;999.90;;;17.90;99.90;;;;;;6723618;88;20296;-79
2023/04/22 17:04:31;;;;;;;1999.90;999.90;;;17.90;99.90;;;;;;6726726;88;21150;-81
2023/04/22 17:14:32;;;;;;;1999.90;999.90;;;17.70;99.90;;;;;;6728314;88;20226;-79
2023/04/22 17:24:33;;;;;;;1999.90;999.90;;;17.30;99.90;;;;;;6718587;88;20186;-79
2023/04/22 17:34:34;;;;;;;1999.90;999.90;;;16.50;99.90;;;;;;6727271;88;20200;-80
2023/04/22 17:44:34;;;;;;;1999.90;999.90;;;16.40;99.90;;;;;;6724740;88;20247;-77
2023/04/22 17:54:35;;;;;;;1999.90;999.90;;;16.40;99.90;;;;;;6720112;88;21344;-79
2023/04/22 18:04:35;;;;;;;1999.90;999.90;;;16.20;99.90;;;;;;6729153;88;20190;-80
2023/04/22 18:14:36;;;;;;;1999.90;999.90;;;16.20;99.90;;;;;;6728790;88;20182;-79
2023/04/22 18:24:37;;;;;;;1999.90;999.90;;;16.20;99.90;;;;;;6730546;88;20175;-79
2023/04/22 18:34:38;;;;;;;1999.90;999.90;;;16.10;99.90;;;;;;6740925;88;20734;-80
2023/04/22 18:44:39;;;;;;;1999.90;999.90;;;16.10;99.90;;;;;;6736934;88;20207;-78
2023/04/22 18:54:39;;;;;;;1999.90;999.90;;;16.00;99.90;;;;;;6741373;88;20232;-80
2023/04/22 19:04:40;;;;;;;1999.90;999.90;;;15.80;99.90;;;;;;6747767;88;20198;-78
2023/04/22 19:14:40;;;;;;;1999.90;999.90;;;15.90;99.90;;;;;;6746589;88;20166;-78
2023/04/22 19:24:41;;;;;;;1999.90;999.90;;;15.80;99.90;;;;;;6742097;88;20170;-79
2023/04/22 19:34:42;;;;;;;1999.90;999.90;;;15.80;99.90;;;;;;6698666;88;20195;-80
2023/04/22 19:44:45;;;;;;;1999.90;999.90;;;15.70;99.90;;;;;;6695961;88;20215;-80
2023/04/22 19:54:47;;;;;;;1999.90;999.90;;;15.60;99.90;;;;;;6696051;88;20195;-80
2023/04/22 20:04:49;;;;;;;1999.90;999.90;;;15.60;99.90;;;;;;6739392;88;20426;-79
2023/04/22 20:14:50;;;;;;;1999.90;999.90;;;15.50;99.90;;;;;;6749821;88;20170;-79
2023/04/22 20:25:06;;;;;;;1999.90;999.90;;;15.50;99.90;;;;;;6705737;88;20219;-80
2023/04/22 20:35:10;;;;;;;1999.90;999.90;;;15.40;99.90;;;;;;6730119;88;20240;-80
2023/04/22 20:45:14;;;;;;;1999.90;999.90;;;15.30;99.90;;;;;;6730745;88;20190;-80
2023/04/22 20:55:56;;;;;;;1999.90;999.90;;;15.20;99.90;;;;;;6681988;77;20197;-81
2023/04/22 21:05:57;;;;;;;1999.90;999.90;;;15.30;99.90;;;;;;6652625;88;20272;-81
2023/04/22 21:16:01;;;;;;;1999.90;999.90;;;15.20;99.90;;;;;;6650976;88;20184;-80
2023/04/22 21:26:02;;;;;;;1999.90;999.90;;;15.10;99.90;;;;;;6638440;89;20224;-79
2023/04/22 21:36:03;;;;;;;1999.90;999.90;;;14.80;99.90;;;;;;6639304;89;20209;-81
2023/04/22 21:46:03;;;;;;;1999.90;999.90;;;14.60;99.90;;;;;;6648794;89;20261;-81
2023/04/22 21:56:04;;;;;;;1999.90;999.90;;;14.30;99.90;;;;;;6641475;89;20258;-79
2023/04/22 22:06:05;;;;;;;1999.90;999.90;;;13.90;99.90;;;;;;6640440;89;20939;-80
2023/04/22 22:16:05;;;;;;;1999.90;999.90;;;13.40;99.90;;;;;;6644727;89;20349;-81
2023/04/22 22:26:07;;;;;;;1999.90;999.90;;;13.10;99.90;;;;;;6644663;89;20179;-82
2023/04/22 22:36:07;;;;;;;1999.90;999.90;;;13.00;99.90;;;;;;6644933;89;20526;-80
2023/04/22 22:46:08;;;;;;;1999.90;999.90;;;12.80;99.90;;;;;;6643414;89;20295;-81
2023/04/22 22:56:08;;;;;;;1999.90;999.90;;;12.80;99.90;;;;;;6642919;89;20685;-80
2023/04/22 23:06:10;;;;;;;1999.90;999.90;;;12.70;99.90;;;;;;6637836;89;21012;-80
2023/04/22 23:16:11;;;;;;;1999.90;999.90;;;12.50;99.90;;;;;;6642260;89;20317;-80
2023/04/22 23:26:11;;;;;;;1999.90;999.90;;;12.40;99.90;;;;;;6641674;89;20222;-80
2023/04/22 23:36:13;;;;;;;1999.90;999.90;;;12.30;99.90;;;;;;6642060;89;20230;-80
2023/04/22 23:46:14;;;;;;;1999.90;999.90;;;12.30;99.90;;;;;;6641718;88;20685;-80
2023/04/22 23:56:18;;;;;;;1999.90;999.90;;;12.20;99.90;;;;;;6641335;89;20219;-80
